createdAt,value
2022-10-30T00:00:06.870Z,10.32
2022-10-30T00:02:33.820Z,9.94
2022-10-30T00:05:00.644Z,10.09
2022-10-30T00:07:28.517Z,10.20
2022-10-30T00:09:55.258Z,10.27
2022-10-30T00:12:22.016Z,10.42
2022-10-30T00:14:51.471Z,10.44
2022-10-30T00:17:18.312Z,10.49
2022-10-30T00:19:45.267Z,10.54
2022-10-30T00:22:12.212Z,10.31
2022-10-30T00:24:38.951Z,10.11
2022-10-30T00:27:05.933Z,10.28
2022-10-30T00:29:32.800Z,10.16
2022-10-30T00:32:01.115Z,10.23
2022-10-30T00:34:28.702Z,10.15
2022-10-30T00:36:56.573Z,10.12
2022-10-30T00:39:23.476Z,10.21
2022-10-30T00:41:50.399Z,10.43
2022-10-30T00:44:36.297Z,10.49
2022-10-30T00:47:07.861Z,10.52
2022-10-30T00:49:37.498Z,10.67
2022-10-30T00:52:09.547Z,10.74
2022-10-30T00:54:37.411Z,10.64
2022-10-30T00:57:08.192Z,10.46
2022-10-30T00:59:36.733Z,10.49
2022-10-30T01:02:05.419Z,10.43
2022-10-30T01:04:37.686Z,10.43
2022-10-30T01:07:09.818Z,10.39
2022-10-30T01:09:37.596Z,10.34
2022-10-30T01:12:04.600Z,10.25
2022-10-30T01:14:34.254Z,10.07
2022-10-30T01:17:19.546Z,10.07
2022-10-30T01:19:54.816Z,10.10
2022-10-30T01:22:39.798Z,10.23
2022-10-30T01:25:21.001Z,10.16
2022-10-30T01:27:57.796Z,10.06
2022-10-30T01:30:41.723Z,9.97
2022-10-30T01:33:24.618Z,10.04
2022-10-30T01:36:00.087Z,10.18
2022-10-30T01:38:32.125Z,10.27
2022-10-30T01:40:58.988Z,10.25
2022-10-30T01:43:25.717Z,10.24
2022-10-30T01:46:09.866Z,10.24
2022-10-30T01:48:55.765Z,10.13
2022-10-30T01:51:38.890Z,10.12
2022-10-30T01:54:15.092Z,9.98
2022-10-30T01:56:51.701Z,9.94
2022-10-30T01:59:26.064Z,9.93
2022-10-30T02:01:53.188Z,9.95
2022-10-30T02:04:21.899Z,9.82
2022-10-30T02:06:49.493Z,9.54
2022-10-30T02:09:16.987Z,9.73
2022-10-30T02:11:45.435Z,9.80
2022-10-30T02:14:14.455Z,9.74
2022-10-30T02:16:46.004Z,9.82
2022-10-30T02:19:12.889Z,9.90
2022-10-30T02:21:41.217Z,10.03
2022-10-30T02:24:08.035Z,10.04
2022-10-30T02:26:35.016Z,10.06
2022-10-30T02:29:01.897Z,10.12
2022-10-30T02:31:28.685Z,10.19
2022-10-30T02:33:55.476Z,10.11
2022-10-30T02:36:23.404Z,10.07
2022-10-30T02:38:51.606Z,10.01
2022-10-30T02:41:18.588Z,9.92
2022-10-30T02:43:45.336Z,9.86
2022-10-30T02:46:12.077Z,9.84
2022-10-30T02:48:41.289Z,9.80
2022-10-30T02:51:08.062Z,9.65
2022-10-30T02:53:35.021Z,9.75
2022-10-30T02:56:05.704Z,9.74
2022-10-30T02:58:32.504Z,9.61
2022-10-30T03:01:05.547Z,9.56
2022-10-30T03:03:32.423Z,9.66
2022-10-30T03:06:00.732Z,9.64
2022-10-30T03:08:27.551Z,9.54
2022-10-30T03:11:00.103Z,9.55
2022-10-30T03:13:29.261Z,9.49
2022-10-30T03:16:00.591Z,9.53
2022-10-30T03:18:27.987Z,9.60
2022-10-30T03:20:59.417Z,9.62
2022-10-30T03:23:26.604Z,9.59
2022-10-30T03:25:54.234Z,9.58
2022-10-30T03:28:21.566Z,9.58
2022-10-30T03:30:51.049Z,9.52
2022-10-30T03:33:18.438Z,9.52
2022-10-30T03:35:45.352Z,9.57
2022-10-30T03:38:12.543Z,9.57
2022-10-30T03:40:39.420Z,9.55
2022-10-30T03:43:07.010Z,9.57
2022-10-30T03:45:34.858Z,9.49
2022-10-30T03:48:04.984Z,9.53
2022-10-30T03:50:32.188Z,9.50
2022-10-30T03:52:59.799Z,9.50
2022-10-30T03:55:26.554Z,9.54
2022-10-30T03:57:56.998Z,9.59
2022-10-30T04:00:23.990Z,9.68
2022-10-30T04:02:52.813Z,9.71
2022-10-30T04:05:23.185Z,9.72
2022-10-30T04:07:57.136Z,9.74
2022-10-30T04:10:24.232Z,9.74
2022-10-30T04:12:51.216Z,9.63
2022-10-30T04:15:18.469Z,9.67
2022-10-30T04:17:49.162Z,9.72
2022-10-30T04:20:16.065Z,9.74
2022-10-30T04:22:45.445Z,9.61
2022-10-30T04:25:12.343Z,9.55
2022-10-30T04:27:43.324Z,9.54
2022-10-30T04:30:12.276Z,9.63
2022-10-30T04:32:46.423Z,9.65
2022-10-30T04:35:14.410Z,9.56
2022-10-30T04:37:41.604Z,9.48
2022-10-30T04:40:10.987Z,9.42
2022-10-30T04:42:37.719Z,9.46
2022-10-30T04:45:11.140Z,9.38
2022-10-30T04:47:40.992Z,9.12
2022-10-30T04:50:08.433Z,8.93
2022-10-30T04:52:36.618Z,8.95
2022-10-30T04:55:03.468Z,9.34
2022-10-30T04:57:32.763Z,9.40
2022-10-30T04:59:59.518Z,9.37
2022-10-30T05:02:26.700Z,9.48
2022-10-30T05:04:53.609Z,9.52
2022-10-30T05:07:20.835Z,9.37
2022-10-30T05:09:47.854Z,9.40
2022-10-30T05:12:14.826Z,9.39
2022-10-30T05:14:42.933Z,9.46
2022-10-30T05:17:10.247Z,9.53
2022-10-30T05:19:37.032Z,9.53
2022-10-30T05:22:04.385Z,9.38
2022-10-30T05:24:31.241Z,9.30
2022-10-30T05:26:59.568Z,9.29
2022-10-30T05:29:26.411Z,9.30
2022-10-30T05:31:54.625Z,9.27
2022-10-30T05:34:25.569Z,9.14
2022-10-30T05:36:52.616Z,9.07
2022-10-30T05:39:20.197Z,9.05
2022-10-30T05:41:47.150Z,9.17
2022-10-30T05:44:18.119Z,9.31
2022-10-30T05:46:56.999Z,9.53
2022-10-30T05:49:24.375Z,9.60
2022-10-30T05:51:51.248Z,9.58
2022-10-30T05:54:20.218Z,9.47
2022-10-30T05:56:47.816Z,9.47
2022-10-30T05:59:18.252Z,9.44
2022-10-30T06:01:46.028Z,9.35
2022-10-30T06:04:18.216Z,9.32
2022-10-30T06:06:45.122Z,9.31
2022-10-30T06:09:12.020Z,9.26
2022-10-30T06:11:39.352Z,9.30
2022-10-30T06:14:07.326Z,9.33
2022-10-30T06:16:35.656Z,9.32
2022-10-30T06:19:02.559Z,9.29
2022-10-30T06:21:32.663Z,9.31
2022-10-30T06:24:01.490Z,9.40
2022-10-30T06:26:30.076Z,9.44
2022-10-30T06:28:58.073Z,9.44
2022-10-30T06:31:25.266Z,9.47
2022-10-30T06:33:55.731Z,9.46
2022-10-30T06:36:27.166Z,9.52
2022-10-30T06:38:55.430Z,9.58
2022-10-30T06:41:29.075Z,9.68
2022-10-30T06:43:57.460Z,9.65
2022-10-30T06:46:27.479Z,9.81
2022-10-30T06:48:57.669Z,9.98
2022-10-30T06:51:24.776Z,9.88
2022-10-30T06:53:52.601Z,9.86
2022-10-30T06:56:21.795Z,9.90
2022-10-30T06:58:48.876Z,9.97
2022-10-30T07:01:16.232Z,9.97
2022-10-30T07:03:43.085Z,9.98
2022-10-30T07:06:11.482Z,9.96
2022-10-30T07:08:38.493Z,9.98
2022-10-30T07:11:05.807Z,10.05
2022-10-30T07:13:34.127Z,10.13
2022-10-30T07:16:00.898Z,10.29
2022-10-30T07:18:27.868Z,10.47
2022-10-30T07:20:57.778Z,10.65
2022-10-30T07:23:25.158Z,10.86
2022-10-30T07:25:51.914Z,11.10
2022-10-30T07:28:19.937Z,11.33
2022-10-30T07:30:48.060Z,11.58
2022-10-30T07:33:14.899Z,11.79
2022-10-30T07:35:41.629Z,12.09
2022-10-30T07:38:11.328Z,12.38
2022-10-30T07:40:39.185Z,12.60
2022-10-30T07:43:06.200Z,12.85
2022-10-30T07:45:33.369Z,13.07
2022-10-30T07:48:02.145Z,13.28
2022-10-30T07:50:29.328Z,13.42
2022-10-30T07:52:56.408Z,13.61
2022-10-30T07:55:23.439Z,13.77
2022-10-30T07:57:50.210Z,13.94
2022-10-30T08:00:17.989Z,14.10
2022-10-30T08:02:48.740Z,14.18
2022-10-30T08:05:17.875Z,14.33
2022-10-30T08:07:47.159Z,14.46
2022-10-30T08:10:14.675Z,14.56
2022-10-30T08:12:41.722Z,14.69
2022-10-30T08:15:10.570Z,14.85
2022-10-30T08:17:41.927Z,14.99
2022-10-30T08:20:10.160Z,15.10
2022-10-30T08:22:46.084Z,15.21
2022-10-30T08:25:14.281Z,15.31
2022-10-30T08:27:50.299Z,15.44
2022-10-30T08:30:18.645Z,15.58
2022-10-30T08:32:45.382Z,15.72
2022-10-30T08:35:15.764Z,15.81
2022-10-30T08:37:47.993Z,15.91
2022-10-30T08:40:15.218Z,16.07
2022-10-30T08:42:44.163Z,16.19
2022-10-30T08:45:12.174Z,16.38
2022-10-30T08:47:40.168Z,16.48
2022-10-30T08:50:08.361Z,16.59
2022-10-30T08:52:35.251Z,16.66
2022-10-30T08:55:08.082Z,16.77
2022-10-30T08:57:36.311Z,16.89
2022-10-30T09:00:03.890Z,17.01
2022-10-30T09:02:32.167Z,17.15
2022-10-30T09:04:59.397Z,17.25
2022-10-30T09:07:27.974Z,17.36
2022-10-30T09:09:57.755Z,17.47
2022-10-30T09:12:26.661Z,17.52
2022-10-30T09:14:55.047Z,17.66
2022-10-30T09:17:22.257Z,17.79
2022-10-30T09:19:49.314Z,17.88
2022-10-30T09:22:16.192Z,17.94
2022-10-30T09:24:43.254Z,18.01
2022-10-30T09:27:10.172Z,18.10
2022-10-30T09:29:39.217Z,18.16
2022-10-30T09:32:06.637Z,18.22
2022-10-30T09:34:33.865Z,18.29
2022-10-30T09:37:00.987Z,18.25
2022-10-30T09:39:28.927Z,18.31
2022-10-30T09:42:22.043Z,18.38
2022-10-30T09:45:23.683Z,18.42
2022-10-30T09:48:01.215Z,18.52
2022-10-30T09:50:32.229Z,18.56
2022-10-30T09:53:14.420Z,18.60
2022-10-30T09:55:47.193Z,18.55
2022-10-30T09:58:28.210Z,18.60
2022-10-30T10:01:09.170Z,18.70
2022-10-30T10:06:21.002Z,18.76
2022-10-30T10:08:54.723Z,18.76
2022-10-30T10:11:26.328Z,18.75
2022-10-30T10:13:59.052Z,18.78
2022-10-30T10:16:30.299Z,18.86
2022-10-30T10:19:06.104Z,18.91
2022-10-30T10:21:39.605Z,19.02
2022-10-30T10:24:19.737Z,19.16
2022-10-30T10:26:54.672Z,19.27
2022-10-30T10:29:39.436Z,19.29
2022-10-30T10:32:49.416Z,19.37
2022-10-30T10:35:40.110Z,19.40
2022-10-30T10:38:17.157Z,19.44
2022-10-30T10:40:54.546Z,19.28
2022-10-30T10:43:35.994Z,19.29
2022-10-30T10:46:23.473Z,19.38
2022-10-30T10:49:03.779Z,19.42
2022-10-30T10:51:36.875Z,19.50
2022-10-30T10:54:10.746Z,19.55
2022-10-30T10:56:42.824Z,19.62
2022-10-30T10:59:17.251Z,19.66
2022-10-30T11:01:54.113Z,19.72
2022-10-30T11:04:31.564Z,19.76
2022-10-30T11:07:10.506Z,19.79
2022-10-30T11:09:39.744Z,19.75
2022-10-30T11:12:07.183Z,19.81
2022-10-30T11:14:34.185Z,19.83
2022-10-30T11:17:12.004Z,19.88
2022-10-30T11:19:39.095Z,19.91
2022-10-30T11:22:17.250Z,20.01
2022-10-30T11:24:44.321Z,20.10
2022-10-30T11:27:26.266Z,20.06
2022-10-30T11:29:56.355Z,20.14
2022-10-30T11:32:28.744Z,20.18
2022-10-30T11:35:03.688Z,20.16
2022-10-30T11:37:33.814Z,20.15
2022-10-30T11:40:06.803Z,20.17
2022-10-30T11:42:35.151Z,20.18
2022-10-30T11:45:03.205Z,20.21
2022-10-30T11:50:17.926Z,20.28
2022-10-30T11:52:49.249Z,20.31
2022-10-30T11:55:19.702Z,20.35
2022-10-30T11:57:50.103Z,20.32
2022-10-30T12:00:21.286Z,20.17
2022-10-30T12:02:53.082Z,20.24
2022-10-30T12:05:35.973Z,20.29
2022-10-30T12:08:24.210Z,20.31
2022-10-30T12:11:00.863Z,20.26
2022-10-30T12:13:33.425Z,20.19
2022-10-30T12:16:07.383Z,20.20
2022-10-30T12:18:36.642Z,20.22
2022-10-30T12:21:04.232Z,20.26
2022-10-30T12:23:35.164Z,20.34
2022-10-30T12:26:09.714Z,20.40
2022-10-30T12:28:37.322Z,20.43
2022-10-30T12:31:12.982Z,20.44
2022-10-30T12:33:45.481Z,20.45
2022-10-30T12:36:16.749Z,20.47
2022-10-30T12:38:52.071Z,20.49
2022-10-30T12:41:23.441Z,20.49
2022-10-30T12:43:57.898Z,20.50
2022-10-30T12:46:36.668Z,20.46
2022-10-30T12:49:13.068Z,20.42
2022-10-30T12:51:49.715Z,20.45
2022-10-30T12:54:32.383Z,20.45
2022-10-30T12:57:07.685Z,20.44
2022-10-30T12:59:42.778Z,20.44
2022-10-30T13:02:20.220Z,20.44
2022-10-30T13:04:58.559Z,20.41
2022-10-30T13:07:31.732Z,20.31
2022-10-30T13:10:19.148Z,20.28
2022-10-30T13:12:51.186Z,20.25
2022-10-30T13:15:25.011Z,20.17
2022-10-30T13:17:52.544Z,20.12
2022-10-30T13:20:20.814Z,20.07
2022-10-30T13:22:53.909Z,19.99
2022-10-30T13:25:31.071Z,19.91
2022-10-30T13:28:07.529Z,19.83
2022-10-30T13:30:40.398Z,19.79
2022-10-30T13:33:13.486Z,19.76
2022-10-30T13:35:47.410Z,19.71
2022-10-30T13:38:33.275Z,19.65
2022-10-30T13:41:21.072Z,19.63
2022-10-30T13:43:56.287Z,19.57
2022-10-30T13:46:59.539Z,19.54
2022-10-30T13:49:43.807Z,19.48
2022-10-30T13:52:16.240Z,19.39
2022-10-30T13:54:57.041Z,19.36
2022-10-30T13:57:35.395Z,19.29
2022-10-30T14:00:08.024Z,19.24
2022-10-30T14:03:13.656Z,19.18
2022-10-30T14:05:46.772Z,19.14
2022-10-30T14:08:24.966Z,19.07
2022-10-30T14:10:57.537Z,18.99
2022-10-30T14:13:51.681Z,18.91
2022-10-30T14:16:39.936Z,18.84
2022-10-30T14:19:08.798Z,18.77
2022-10-30T14:21:43.638Z,18.71
2022-10-30T14:24:21.485Z,18.66
2022-10-30T14:26:53.524Z,18.60
2022-10-30T14:29:38.789Z,18.55
2022-10-30T14:32:47.749Z,18.47
2022-10-30T14:35:29.709Z,18.40
2022-10-30T14:37:57.207Z,18.18
2022-10-30T14:40:37.310Z,18.15
2022-10-30T14:43:10.067Z,18.08
2022-10-30T14:45:45.055Z,18.03
2022-10-30T14:48:19.407Z,17.92
2022-10-30T14:51:01.021Z,17.85
2022-10-30T14:53:42.183Z,17.74
2022-10-30T14:56:24.817Z,17.65
2022-10-30T14:59:21.736Z,17.55
2022-10-30T15:02:02.060Z,17.39
2022-10-30T15:04:41.491Z,17.24
2022-10-30T15:07:20.602Z,17.08
2022-10-30T15:10:02.437Z,16.94
2022-10-30T15:12:55.826Z,16.80
2022-10-30T15:15:25.640Z,16.62
2022-10-30T15:18:07.541Z,16.43
2022-10-30T15:20:38.786Z,16.16
2022-10-30T15:23:14.359Z,15.94
2022-10-30T15:25:47.441Z,16.00
2022-10-30T15:28:20.462Z,15.82
2022-10-30T15:31:04.877Z,15.65
2022-10-30T15:33:35.290Z,15.30
2022-10-30T15:36:02.101Z,14.75
2022-10-30T15:38:34.005Z,14.53
2022-10-30T15:41:04.513Z,14.37
2022-10-30T15:43:36.115Z,14.48
2022-10-30T15:46:09.401Z,14.37
2022-10-30T15:48:45.495Z,14.33
2022-10-30T15:51:16.860Z,14.28
2022-10-30T15:53:47.282Z,14.19
2022-10-30T15:56:20.156Z,14.08
2022-10-30T15:58:50.290Z,13.99
2022-10-30T16:01:25.431Z,13.87
2022-10-30T16:03:58.002Z,13.77
2022-10-30T16:06:27.590Z,13.73
2022-10-30T16:08:54.741Z,13.69
2022-10-30T16:11:23.193Z,13.66
2022-10-30T16:13:50.924Z,13.61
2022-10-30T16:16:22.635Z,13.55
2022-10-30T16:18:49.672Z,13.44
2022-10-30T16:21:22.673Z,13.30
2022-10-30T16:23:52.401Z,13.19
2022-10-30T16:26:26.729Z,13.08
2022-10-30T16:28:53.862Z,13.07
2022-10-30T16:31:21.342Z,13.07
2022-10-30T16:33:49.371Z,13.03
2022-10-30T16:36:19.496Z,12.98
2022-10-30T16:38:48.686Z,12.84
2022-10-30T16:41:22.717Z,12.79
2022-10-30T16:44:16.053Z,12.74
2022-10-30T16:46:50.502Z,12.72
2022-10-30T16:49:20.309Z,12.77
2022-10-30T16:51:58.328Z,12.74
2022-10-30T16:54:29.897Z,12.58
2022-10-30T16:56:58.902Z,12.54
2022-10-30T16:59:30.757Z,12.58
2022-10-30T17:01:59.790Z,12.50
2022-10-30T17:04:28.642Z,12.54
2022-10-30T17:07:06.685Z,12.51
2022-10-30T17:09:36.782Z,12.34
2022-10-30T17:12:22.160Z,12.34
2022-10-30T17:14:55.196Z,12.33
2022-10-30T17:17:27.413Z,12.38
2022-10-30T17:19:57.029Z,12.35
2022-10-30T17:22:26.756Z,12.30
2022-10-30T17:24:54.210Z,12.32
2022-10-30T17:27:46.845Z,12.29
2022-10-30T17:30:35.865Z,12.28
2022-10-30T17:33:23.210Z,12.28
2022-10-30T17:35:50.444Z,12.22
2022-10-30T17:38:19.254Z,12.21
2022-10-30T17:40:46.719Z,12.23
2022-10-30T17:43:14.223Z,12.19
2022-10-30T17:45:41.520Z,12.17
2022-10-30T17:48:14.632Z,12.12
2022-10-30T17:50:41.746Z,12.14
2022-10-30T17:53:16.507Z,12.09
2022-10-30T17:55:49.477Z,12.00
2022-10-30T17:58:21.679Z,11.96
2022-10-30T18:00:48.589Z,12.01
2022-10-30T18:03:15.585Z,11.95
2022-10-30T18:05:43.735Z,11.95
2022-10-30T18:08:12.987Z,12.02
2022-10-30T18:10:39.758Z,11.91
2022-10-30T18:13:09.915Z,11.56
2022-10-30T18:15:40.553Z,11.48
2022-10-30T18:18:09.702Z,11.58
2022-10-30T18:20:37.753Z,11.64
2022-10-30T18:23:04.978Z,11.71
2022-10-30T18:25:35.719Z,11.82
2022-10-30T18:28:03.212Z,11.89
2022-10-30T18:30:31.788Z,11.91
2022-10-30T18:32:59.112Z,12.01
2022-10-30T18:35:29.390Z,12.04
2022-10-30T18:37:57.090Z,12.01
2022-10-30T18:40:24.183Z,11.93
2022-10-30T18:42:51.075Z,11.77
2022-10-30T18:45:22.993Z,11.65
2022-10-30T18:47:52.067Z,11.56
2022-10-30T18:50:21.366Z,11.58
2022-10-30T18:52:48.155Z,11.54
2022-10-30T18:55:21.072Z,11.51
2022-10-30T18:57:51.286Z,11.47
2022-10-30T19:00:23.626Z,11.34
2022-10-30T19:02:52.596Z,11.25
2022-10-30T19:05:30.929Z,11.26
2022-10-30T19:08:00.804Z,11.27
2022-10-30T19:10:29.979Z,11.20
2022-10-30T19:13:11.765Z,11.18
2022-10-30T19:15:41.136Z,11.13
2022-10-30T19:18:10.024Z,11.11
2022-10-30T19:20:58.880Z,11.31
2022-10-30T19:23:25.441Z,11.46
2022-10-30T19:25:52.567Z,11.48
2022-10-30T19:28:22.096Z,11.47
2022-10-30T19:30:49.931Z,11.40
2022-10-30T19:33:21.117Z,11.30
2022-10-30T19:35:53.533Z,11.25
2022-10-30T19:38:20.513Z,11.19
2022-10-30T19:40:48.773Z,11.18
2022-10-30T19:43:15.636Z,11.16
2022-10-30T19:45:42.467Z,11.30
2022-10-30T19:48:14.466Z,11.25
2022-10-30T19:50:45.235Z,11.22
2022-10-30T19:53:13.238Z,11.12
2022-10-30T19:55:41.620Z,10.97
2022-10-30T19:58:15.930Z,10.95
2022-10-30T20:00:43.218Z,10.96
2022-10-30T20:03:14.958Z,10.90
2022-10-30T20:05:45.033Z,10.92
2022-10-30T20:08:14.391Z,10.91
2022-10-30T20:10:42.721Z,10.87
2022-10-30T20:13:10.710Z,10.83
2022-10-30T20:15:38.563Z,10.89
2022-10-30T20:18:13.331Z,10.89
2022-10-30T20:20:45.049Z,11.03
2022-10-30T20:23:13.245Z,10.97
2022-10-30T20:25:40.774Z,10.85
2022-10-30T20:28:18.465Z,10.90
2022-10-30T20:30:46.560Z,10.85
2022-10-30T20:33:13.790Z,10.85
2022-10-30T20:35:41.869Z,10.74
2022-10-30T20:38:19.980Z,10.66
2022-10-30T20:40:48.447Z,10.60
2022-10-30T20:43:17.929Z,10.58
2022-10-30T20:45:46.134Z,10.64
2022-10-30T20:48:13.793Z,10.67
2022-10-30T20:50:44.556Z,10.74
2022-10-30T20:53:17.274Z,10.82
2022-10-30T20:55:44.554Z,10.69
2022-10-30T20:58:11.739Z,10.62
2022-10-30T21:00:39.806Z,10.61
2022-10-30T21:03:07.727Z,10.67
2022-10-30T21:05:43.931Z,10.79
2022-10-30T21:08:11.763Z,10.70
2022-10-30T21:10:40.372Z,10.56
2022-10-30T21:13:10.247Z,10.43
2022-10-30T21:15:38.883Z,10.35
2022-10-30T21:18:06.281Z,10.44
2022-10-30T21:20:33.077Z,10.41
2022-10-30T21:23:01.101Z,10.57
2022-10-30T21:25:27.861Z,10.59
2022-10-30T21:27:57.855Z,10.59
2022-10-30T21:30:24.630Z,10.60
2022-10-30T21:32:52.907Z,10.65
2022-10-30T21:35:19.858Z,10.63
2022-10-30T21:37:48.015Z,10.63
2022-10-30T21:40:15.017Z,10.52
2022-10-30T21:42:41.833Z,10.47
2022-10-30T21:45:10.647Z,10.32
2022-10-30T21:47:37.408Z,10.36
2022-10-30T21:50:07.632Z,10.30
2022-10-30T21:52:37.784Z,10.24
2022-10-30T21:55:05.384Z,10.21
2022-10-30T21:57:32.124Z,10.24
2022-10-30T22:00:01.802Z,10.21
2022-10-30T22:02:34.292Z,10.08
2022-10-30T22:05:01.365Z,10.13
2022-10-30T22:07:28.145Z,10.27
2022-10-30T22:09:56.125Z,10.40
2022-10-30T22:12:23.265Z,10.67
2022-10-30T22:14:52.273Z,10.77
2022-10-30T22:17:19.004Z,10.55
2022-10-30T22:19:47.487Z,10.45
2022-10-30T22:22:14.209Z,10.29
2022-10-30T22:24:41.065Z,10.11
2022-10-30T22:27:09.066Z,10.27
2022-10-30T22:29:35.836Z,10.26
2022-10-30T22:32:04.080Z,10.25
2022-10-30T22:34:30.804Z,10.22
2022-10-30T22:36:59.122Z,10.28
2022-10-30T22:39:25.929Z,10.23
2022-10-30T22:41:54.836Z,10.01
2022-10-30T22:44:21.641Z,10.03
2022-10-30T22:46:48.815Z,10.03
2022-10-30T22:49:15.535Z,10.09
2022-10-30T22:51:42.829Z,10.08
2022-10-30T22:54:12.103Z,9.97
2022-10-30T22:56:41.205Z,10.02
2022-10-30T22:59:10.586Z,10.00
2022-10-30T23:01:38.925Z,10.12
2022-10-30T23:04:07.661Z,10.18
2022-10-30T23:06:35.561Z,10.21
2022-10-30T23:09:07.922Z,10.27
2022-10-30T23:11:36.349Z,10.28
2022-10-30T23:14:04.662Z,10.26
2022-10-30T23:16:31.830Z,10.24
2022-10-30T23:18:59.995Z,10.12
2022-10-30T23:21:29.217Z,10.06
2022-10-30T23:23:56.660Z,10.06
2022-10-30T23:26:25.325Z,10.10
2022-10-30T23:28:56.961Z,10.09
2022-10-30T23:31:26.758Z,9.92
2022-10-30T23:33:55.879Z,9.94
2022-10-30T23:36:24.458Z,9.88
2022-10-30T23:38:52.717Z,9.78
2022-10-30T23:41:19.824Z,9.91
2022-10-30T23:43:48.454Z,10.10
2022-10-30T23:46:16.685Z,10.18
2022-10-30T23:48:43.486Z,10.17
2022-10-30T23:51:10.306Z,10.09
2022-10-30T23:53:37.876Z,10.11
2022-10-30T23:56:05.827Z,10.17
2022-10-30T23:58:34.427Z,10.12
